createdAt,value
2022-07-29T00:00:45.762Z,65.44
2022-07-29T00:03:14.918Z,65.46
2022-07-29T00:05:43.333Z,64.81
2022-07-29T00:08:12.682Z,62.98
2022-07-29T00:10:40.854Z,64.44
2022-07-29T00:13:08.778Z,65.09
2022-07-29T00:15:36.989Z,66.48
2022-07-29T00:18:05.137Z,66.37
2022-07-29T00:20:32.979Z,65.84
2022-07-29T00:23:01.431Z,65.83
2022-07-29T00:25:29.208Z,66.08
2022-07-29T00:27:57.025Z,66.23
2022-07-29T00:30:24.864Z,65.64
2022-07-29T00:32:52.644Z,65.25
2022-07-29T00:35:39.234Z,63.85
2022-07-29T00:38:08.016Z,65.43
2022-07-29T00:40:35.821Z,65.89
2022-07-29T00:43:03.926Z,65.70
2022-07-29T00:45:31.989Z,65.89
2022-07-29T00:48:00.294Z,65.85
2022-07-29T00:50:28.474Z,65.53
2022-07-29T00:52:56.300Z,65.77
2022-07-29T00:55:24.273Z,65.84
2022-07-29T00:57:53.090Z,66.12
2022-07-29T01:00:24.604Z,66.47
2022-07-29T01:02:52.701Z,66.64
2022-07-29T01:05:22.477Z,64.91
2022-07-29T01:07:54.697Z,65.57
2022-07-29T01:10:23.612Z,66.14
2022-07-29T01:12:52.967Z,65.50
2022-07-29T01:15:21.318Z,65.49
2022-07-29T01:17:58.731Z,66.03
2022-07-29T01:21:01.033Z,66.03
2022-07-29T01:23:46.953Z,66.44
2022-07-29T01:26:33.444Z,65.38
2022-07-29T01:29:23.617Z,66.59
2022-07-29T01:32:01.245Z,66.24
2022-07-29T01:34:37.129Z,65.71
2022-07-29T01:37:31.147Z,64.84
2022-07-29T01:39:59.994Z,65.45
2022-07-29T01:42:46.566Z,65.67
2022-07-29T01:46:03.691Z,65.55
2022-07-29T01:48:51.552Z,65.54
2022-07-29T01:51:29.489Z,65.89
2022-07-29T01:54:06.437Z,65.89
2022-07-29T01:56:36.486Z,64.43
2022-07-29T01:59:06.119Z,66.17
2022-07-29T02:01:34.238Z,65.79
2022-07-29T02:04:07.475Z,65.73
2022-07-29T02:06:36.386Z,66.12
2022-07-29T02:09:05.626Z,66.26
2022-07-29T02:11:37.202Z,66.27
2022-07-29T02:14:05.536Z,65.99
2022-07-29T02:16:34.763Z,65.83
2022-07-29T02:19:05.125Z,65.70
2022-07-29T02:21:33.221Z,66.19
2022-07-29T02:24:02.600Z,66.30
2022-07-29T02:26:32.535Z,65.93
2022-07-29T02:29:01.343Z,65.96
2022-07-29T02:31:33.978Z,65.98
2022-07-29T02:34:08.544Z,65.55
2022-07-29T02:36:37.610Z,65.80
2022-07-29T02:39:06.370Z,66.24
2022-07-29T02:41:48.887Z,66.66
2022-07-29T02:44:21.903Z,66.59
2022-07-29T02:47:22.196Z,66.61
2022-07-29T02:49:56.609Z,66.22
2022-07-29T02:52:41.032Z,65.87
2022-07-29T02:55:32.029Z,66.34
2022-07-29T02:58:15.632Z,67.09
2022-07-29T03:00:44.022Z,66.62
2022-07-29T03:03:17.414Z,66.28
2022-07-29T03:05:45.674Z,64.15
2022-07-29T03:08:16.115Z,65.42
2022-07-29T03:10:46.618Z,68.05
2022-07-29T03:13:15.696Z,67.66
2022-07-29T03:15:44.677Z,67.36
2022-07-29T03:18:13.131Z,67.80
2022-07-29T03:20:41.537Z,67.90
2022-07-29T03:23:09.781Z,67.50
2022-07-29T03:25:37.667Z,67.21
2022-07-29T03:28:05.777Z,66.90
2022-07-29T03:30:33.795Z,67.24
2022-07-29T03:33:02.034Z,67.03
2022-07-29T03:35:32.581Z,66.53
2022-07-29T03:38:00.605Z,66.07
2022-07-29T03:40:36.667Z,66.43
2022-07-29T03:43:05.184Z,66.51
2022-07-29T03:45:33.401Z,66.16
2022-07-29T03:48:05.327Z,65.88
2022-07-29T03:50:34.978Z,65.91
2022-07-29T03:53:03.867Z,66.00
2022-07-29T03:55:37.616Z,66.02
2022-07-29T03:58:06.476Z,64.51
2022-07-29T04:00:34.903Z,63.31
2022-07-29T04:03:05.167Z,63.89
2022-07-29T04:05:39.240Z,64.22
2022-07-29T04:08:07.072Z,64.51
2022-07-29T04:10:35.176Z,64.67
2022-07-29T04:13:03.856Z,64.62
2022-07-29T04:15:32.035Z,65.13
2022-07-29T04:18:00.528Z,66.63
2022-07-29T04:20:28.531Z,66.73
2022-07-29T04:22:56.537Z,65.19
2022-07-29T04:25:24.464Z,64.26
2022-07-29T04:28:01.182Z,64.76
2022-07-29T04:30:30.677Z,64.69
2022-07-29T04:32:59.454Z,65.20
2022-07-29T04:35:28.236Z,65.36
2022-07-29T04:37:56.878Z,65.80
2022-07-29T04:40:25.337Z,65.15
2022-07-29T04:42:53.420Z,64.58
2022-07-29T04:45:22.875Z,63.41
2022-07-29T04:47:51.151Z,64.30
2022-07-29T04:50:19.090Z,63.01
2022-07-29T04:52:46.837Z,62.85
2022-07-29T04:55:14.719Z,63.24
2022-07-29T04:57:42.549Z,63.58
2022-07-29T05:00:10.975Z,63.72
2022-07-29T05:02:39.360Z,63.56
2022-07-29T05:05:07.797Z,63.65
2022-07-29T05:07:35.775Z,64.00
2022-07-29T05:10:04.346Z,64.01
2022-07-29T05:12:32.246Z,63.73
2022-07-29T05:15:00.049Z,63.54
2022-07-29T05:17:27.890Z,62.75
2022-07-29T05:19:55.698Z,62.57
2022-07-29T05:22:24.696Z,62.64
2022-07-29T05:24:53.433Z,62.03
2022-07-29T05:27:21.280Z,61.74
2022-07-29T05:29:49.248Z,61.47
2022-07-29T05:32:17.034Z,61.80
2022-07-29T05:34:50.297Z,61.69
2022-07-29T05:37:20.717Z,61.43
2022-07-29T05:39:56.148Z,60.70
2022-07-29T05:42:26.333Z,60.72
2022-07-29T05:44:54.688Z,60.94
2022-07-29T05:47:23.089Z,61.07
2022-07-29T05:49:51.704Z,60.76
2022-07-29T05:52:19.696Z,60.77
2022-07-29T05:54:47.757Z,60.27
2022-07-29T05:57:23.395Z,60.38
2022-07-29T05:59:52.042Z,60.05
2022-07-29T06:02:20.116Z,59.13
2022-07-29T06:04:48.128Z,58.75
2022-07-29T06:07:17.239Z,59.37
2022-07-29T06:09:45.197Z,60.03
2022-07-29T06:12:13.114Z,61.07
2022-07-29T06:14:41.134Z,62.30
2022-07-29T06:17:09.139Z,62.50
2022-07-29T06:19:37.491Z,61.55
2022-07-29T06:22:05.881Z,59.07
2022-07-29T06:24:33.693Z,59.14
2022-07-29T06:27:01.632Z,59.93
2022-07-29T06:29:29.575Z,61.50
2022-07-29T06:31:57.715Z,60.89
2022-07-29T06:34:25.484Z,61.80
2022-07-29T06:36:54.274Z,60.84
2022-07-29T06:39:22.405Z,60.25
2022-07-29T06:41:51.642Z,60.15
2022-07-29T06:44:20.372Z,61.06
2022-07-29T06:46:51.260Z,61.33
2022-07-29T06:49:19.405Z,60.95
2022-07-29T06:51:47.752Z,60.49
2022-07-29T06:54:16.730Z,60.82
2022-07-29T06:56:45.100Z,59.97
2022-07-29T06:59:13.505Z,60.21
2022-07-29T07:01:43.411Z,59.57
2022-07-29T07:04:12.356Z,59.45
2022-07-29T07:06:40.540Z,58.50
2022-07-29T07:09:08.643Z,58.85
2022-07-29T07:11:36.748Z,60.15
2022-07-29T07:14:05.066Z,58.81
2022-07-29T07:16:33.416Z,58.18
2022-07-29T07:19:02.005Z,57.04
2022-07-29T07:21:31.590Z,57.93
2022-07-29T07:24:00.418Z,57.64
2022-07-29T07:26:28.741Z,57.42
2022-07-29T07:28:57.073Z,57.44
2022-07-29T07:31:25.159Z,56.52
2022-07-29T07:33:54.733Z,55.98
2022-07-29T07:36:23.605Z,56.38
2022-07-29T07:38:51.834Z,56.65
2022-07-29T07:41:19.863Z,56.46
2022-07-29T07:43:47.940Z,55.10
2022-07-29T07:46:16.846Z,54.81
2022-07-29T07:48:45.746Z,54.33
2022-07-29T07:51:13.796Z,54.73
2022-07-29T07:53:41.791Z,54.11
2022-07-29T07:56:11.780Z,54.18
2022-07-29T07:58:40.684Z,53.47
2022-07-29T08:01:09.773Z,53.20
2022-07-29T08:03:37.601Z,52.54
2022-07-29T08:06:06.157Z,51.74
2022-07-29T08:08:34.166Z,51.51
2022-07-29T08:11:09.179Z,51.33
2022-07-29T08:13:38.914Z,51.62
2022-07-29T08:16:16.106Z,51.92
2022-07-29T08:18:46.355Z,51.23
2022-07-29T08:21:16.597Z,50.56
2022-07-29T08:23:58.609Z,50.25
2022-07-29T08:26:27.830Z,49.62
2022-07-29T08:28:55.815Z,48.14
2022-07-29T08:31:23.930Z,48.99
2022-07-29T08:33:52.093Z,49.32
2022-07-29T08:36:22.052Z,49.34
2022-07-29T08:38:50.762Z,48.50
2022-07-29T08:41:21.705Z,47.22
2022-07-29T08:43:51.122Z,47.70
2022-07-29T08:46:20.253Z,48.25
2022-07-29T08:48:48.980Z,48.64
2022-07-29T08:51:19.558Z,46.73
2022-07-29T08:53:49.805Z,48.52
2022-07-29T08:56:19.847Z,49.15
2022-07-29T08:58:52.069Z,46.45
2022-07-29T09:01:35.894Z,45.68
2022-07-29T09:04:12.812Z,44.74
2022-07-29T09:06:44.944Z,44.56
2022-07-29T09:09:14.711Z,42.64
2022-07-29T09:11:43.318Z,42.74
2022-07-29T09:14:13.558Z,43.41
2022-07-29T09:16:56.108Z,42.42
2022-07-29T09:19:25.186Z,43.86
2022-07-29T09:21:59.837Z,39.44
2022-07-29T09:24:40.868Z,38.14
2022-07-29T09:27:10.769Z,39.36
2022-07-29T09:29:39.333Z,39.77
2022-07-29T09:32:10.806Z,36.94
2022-07-29T09:34:39.175Z,32.87
2022-07-29T09:37:07.213Z,33.97
2022-07-29T09:39:46.734Z,35.15
2022-07-29T09:42:28.960Z,36.56
2022-07-29T09:44:57.086Z,32.20
2022-07-29T09:47:42.461Z,31.99
2022-07-29T09:50:10.324Z,32.60
2022-07-29T09:52:52.971Z,34.24
2022-07-29T09:55:20.986Z,33.05
2022-07-29T09:57:48.781Z,32.59
2022-07-29T10:00:19.793Z,34.17
2022-07-29T10:02:48.481Z,36.05
2022-07-29T10:05:24.940Z,35.85
2022-07-29T10:07:57.754Z,34.77
2022-07-29T10:10:29.496Z,35.04
2022-07-29T10:13:06.410Z,35.50
2022-07-29T10:15:40.089Z,34.38
2022-07-29T10:18:09.288Z,34.82
2022-07-29T10:20:38.162Z,35.04
2022-07-29T10:23:06.475Z,31.92
2022-07-29T10:25:34.525Z,28.04
2022-07-29T10:28:02.438Z,25.35
2022-07-29T10:30:30.254Z,25.62
2022-07-29T10:33:07.799Z,24.32
2022-07-29T10:35:54.487Z,24.24
2022-07-29T10:41:47.642Z,22.69
2022-07-29T10:44:22.998Z,23.34
2022-07-29T10:46:52.779Z,21.43
2022-07-29T10:49:30.393Z,22.52
2022-07-29T10:52:06.683Z,22.55
2022-07-29T10:54:35.007Z,23.36
2022-07-29T10:57:21.860Z,24.48
2022-07-29T11:00:09.973Z,25.66
2022-07-29T11:02:44.583Z,25.87
2022-07-29T11:05:19.876Z,26.61
2022-07-29T11:08:20.105Z,26.45
2022-07-29T11:10:49.956Z,27.07
2022-07-29T11:13:55.816Z,27.14
2022-07-29T11:16:25.626Z,28.21
2022-07-29T11:19:13.139Z,29.10
2022-07-29T11:22:05.453Z,30.55
2022-07-29T11:24:33.351Z,30.81
2022-07-29T11:27:21.497Z,30.86
2022-07-29T11:29:52.231Z,30.85
2022-07-29T11:32:24.161Z,30.51
2022-07-29T11:35:16.692Z,31.36
2022-07-29T11:37:52.184Z,30.91
2022-07-29T11:40:24.225Z,31.00
2022-07-29T11:42:53.407Z,31.54
2022-07-29T11:45:44.710Z,31.11
2022-07-29T11:48:28.046Z,30.66
2022-07-29T11:51:00.889Z,31.15
2022-07-29T11:53:32.567Z,32.02
2022-07-29T11:56:03.845Z,32.05
2022-07-29T11:58:33.044Z,31.99
2022-07-29T12:01:04.723Z,31.88
2022-07-29T12:04:04.264Z,31.83
2022-07-29T12:06:37.940Z,31.95
2022-07-29T12:09:14.453Z,32.92
2022-07-29T12:11:47.318Z,32.65
2022-07-29T12:14:33.440Z,31.96
2022-07-29T12:17:02.981Z,32.63
2022-07-29T12:19:44.443Z,33.10
2022-07-29T12:22:12.897Z,33.22
2022-07-29T12:24:45.475Z,33.23
2022-07-29T12:27:18.539Z,34.28
2022-07-29T12:29:57.437Z,34.53
2022-07-29T12:32:33.882Z,34.24
2022-07-29T12:35:10.372Z,33.95
2022-07-29T12:37:41.137Z,33.85
2022-07-29T12:40:13.629Z,32.96
2022-07-29T12:42:41.889Z,33.17
2022-07-29T12:45:10.023Z,33.48
2022-07-29T12:47:53.176Z,33.23
2022-07-29T12:50:25.926Z,33.12
2022-07-29T12:52:54.757Z,34.00
2022-07-29T12:55:52.630Z,33.91
2022-07-29T12:58:28.529Z,33.97
2022-07-29T13:01:05.386Z,34.01
2022-07-29T13:03:58.056Z,34.77
2022-07-29T13:06:38.947Z,33.84
2022-07-29T13:09:10.500Z,34.40
2022-07-29T13:11:45.294Z,34.01
2022-07-29T13:14:35.488Z,34.39
2022-07-29T13:17:12.425Z,34.32
2022-07-29T13:19:49.199Z,34.41
2022-07-29T13:22:20.202Z,34.64
2022-07-29T13:24:53.634Z,34.75
2022-07-29T13:27:26.989Z,34.97
2022-07-29T13:29:57.647Z,34.20
2022-07-29T13:32:28.574Z,34.00
2022-07-29T13:34:58.174Z,34.41
2022-07-29T13:37:28.253Z,34.44
2022-07-29T13:39:57.904Z,34.14
2022-07-29T13:42:26.640Z,34.79
2022-07-29T13:44:54.519Z,35.18
2022-07-29T13:47:23.111Z,34.83
2022-07-29T13:50:02.249Z,34.67
2022-07-29T13:52:30.519Z,34.60
2022-07-29T13:54:58.613Z,34.34
2022-07-29T13:57:27.405Z,34.92
2022-07-29T13:59:55.200Z,35.18
2022-07-29T14:02:25.627Z,34.96
2022-07-29T14:04:55.250Z,35.91
2022-07-29T14:07:23.652Z,35.96
2022-07-29T14:09:51.888Z,36.64
2022-07-29T14:12:20.305Z,35.96
2022-07-29T14:14:48.102Z,36.11
2022-07-29T14:17:16.548Z,36.05
2022-07-29T14:19:44.363Z,36.22
2022-07-29T14:22:12.453Z,36.30
2022-07-29T14:24:40.701Z,36.63
2022-07-29T14:27:09.079Z,36.22
2022-07-29T14:29:38.761Z,36.15
2022-07-29T14:32:08.272Z,35.92
2022-07-29T14:34:37.620Z,36.22
2022-07-29T14:37:07.074Z,36.78
2022-07-29T14:39:42.322Z,37.01
2022-07-29T14:42:12.880Z,35.98
2022-07-29T14:44:42.409Z,35.39
2022-07-29T14:47:10.691Z,35.37
2022-07-29T14:49:38.497Z,34.68
2022-07-29T14:52:06.634Z,34.57
2022-07-29T14:54:35.007Z,34.59
2022-07-29T14:57:02.794Z,34.86
2022-07-29T14:59:31.277Z,35.55
2022-07-29T15:01:59.584Z,35.80
2022-07-29T15:04:27.667Z,35.92
2022-07-29T15:06:55.535Z,35.65
2022-07-29T15:09:24.965Z,35.08
2022-07-29T15:11:53.004Z,35.07
2022-07-29T15:14:20.822Z,35.59
2022-07-29T15:16:49.119Z,34.95
2022-07-29T15:19:17.067Z,34.93
2022-07-29T15:21:48.714Z,35.40
2022-07-29T15:24:18.138Z,35.01
2022-07-29T15:26:46.949Z,35.20
2022-07-29T15:29:15.252Z,35.22
2022-07-29T15:31:44.481Z,35.37
2022-07-29T15:34:12.456Z,36.43
2022-07-29T15:36:56.057Z,37.16
2022-07-29T15:39:24.948Z,37.22
2022-07-29T15:41:52.803Z,37.22
2022-07-29T15:44:21.472Z,37.23
2022-07-29T15:47:05.860Z,37.20
2022-07-29T15:49:48.637Z,37.38
2022-07-29T15:52:25.073Z,37.61
2022-07-29T15:54:56.008Z,37.53
2022-07-29T15:57:24.825Z,37.46
2022-07-29T15:59:53.031Z,37.84
2022-07-29T16:02:21.017Z,38.37
2022-07-29T16:04:48.908Z,38.35
2022-07-29T16:07:17.088Z,38.31
2022-07-29T16:09:49.236Z,38.80
2022-07-29T16:12:20.615Z,38.57
2022-07-29T16:14:49.659Z,38.95
2022-07-29T16:17:18.336Z,39.60
2022-07-29T16:19:50.311Z,40.33
2022-07-29T16:22:18.246Z,40.07
2022-07-29T16:24:46.119Z,39.16
2022-07-29T16:27:14.629Z,39.38
2022-07-29T16:29:42.586Z,39.80
2022-07-29T16:32:10.711Z,39.91
2022-07-29T16:34:38.617Z,40.20
2022-07-29T16:37:06.613Z,40.68
2022-07-29T16:39:34.510Z,40.99
2022-07-29T16:42:05.049Z,41.78
2022-07-29T16:44:34.861Z,41.68
2022-07-29T16:47:04.276Z,42.36
2022-07-29T16:49:32.586Z,42.85
2022-07-29T16:52:00.748Z,42.86
2022-07-29T16:54:28.986Z,42.98
2022-07-29T16:56:57.311Z,43.31
2022-07-29T16:59:25.386Z,43.77
2022-07-29T17:01:53.233Z,44.37
2022-07-29T17:04:22.872Z,45.28
2022-07-29T17:06:50.957Z,45.15
2022-07-29T17:09:18.888Z,45.91
2022-07-29T17:11:54.901Z,46.13
2022-07-29T17:14:25.433Z,46.25
2022-07-29T17:17:02.590Z,46.23
2022-07-29T17:19:35.167Z,46.54
2022-07-29T17:22:12.630Z,45.85
2022-07-29T17:24:44.069Z,45.47
2022-07-29T17:27:11.966Z,45.72
2022-07-29T17:29:40.004Z,46.43
2022-07-29T17:32:09.116Z,46.38
2022-07-29T17:34:41.083Z,45.88
2022-07-29T17:37:11.145Z,46.21
2022-07-29T17:39:41.232Z,46.80
2022-07-29T17:42:11.073Z,46.53
2022-07-29T17:44:39.826Z,46.54
2022-07-29T17:47:15.659Z,46.97
2022-07-29T17:49:45.326Z,46.63
2022-07-29T17:52:13.291Z,47.22
2022-07-29T17:54:41.223Z,47.11
2022-07-29T17:57:09.202Z,47.63
2022-07-29T17:59:38.141Z,47.91
2022-07-29T18:02:06.046Z,48.26
2022-07-29T18:04:34.067Z,47.40
2022-07-29T18:07:02.138Z,47.84
2022-07-29T18:09:30.283Z,48.01
2022-07-29T18:11:58.131Z,48.04
2022-07-29T18:14:26.098Z,48.51
2022-07-29T18:16:53.865Z,48.34
2022-07-29T18:19:22.001Z,48.84
2022-07-29T18:21:54.178Z,48.77
2022-07-29T18:24:25.912Z,48.97
2022-07-29T18:26:54.121Z,48.79
2022-07-29T18:29:21.978Z,49.15
2022-07-29T18:31:50.319Z,49.42
2022-07-29T18:34:19.905Z,49.55
2022-07-29T18:36:47.866Z,49.62
2022-07-29T18:39:20.873Z,49.79
2022-07-29T18:41:51.408Z,49.87
2022-07-29T18:44:22.114Z,50.11
2022-07-29T18:46:52.029Z,50.20
2022-07-29T18:49:20.117Z,50.42
2022-07-29T18:51:49.342Z,50.56
2022-07-29T18:54:18.053Z,50.68
2022-07-29T18:56:46.733Z,51.02
2022-07-29T18:59:20.198Z,51.19
2022-07-29T19:01:48.629Z,51.41
2022-07-29T19:04:17.334Z,51.78
2022-07-29T19:06:46.835Z,52.04
2022-07-29T19:09:14.752Z,52.25
2022-07-29T19:11:42.595Z,52.55
2022-07-29T19:14:10.967Z,52.97
2022-07-29T19:16:38.836Z,52.86
2022-07-29T19:19:08.516Z,53.07
2022-07-29T19:21:36.677Z,53.37
2022-07-29T19:24:11.077Z,53.78
2022-07-29T19:26:47.135Z,53.64
2022-07-29T19:29:15.743Z,54.00
2022-07-29T19:31:44.083Z,54.45
2022-07-29T19:34:12.623Z,54.81
2022-07-29T19:36:41.826Z,55.07
2022-07-29T19:39:10.516Z,55.53
2022-07-29T19:41:38.490Z,55.63
2022-07-29T19:44:06.233Z,55.20
2022-07-29T19:46:34.002Z,55.06
2022-07-29T19:49:01.973Z,55.55
2022-07-29T19:51:29.927Z,54.41
2022-07-29T19:53:58.130Z,54.99
2022-07-29T19:56:27.447Z,55.50
2022-07-29T19:58:57.057Z,55.77
2022-07-29T20:01:25.014Z,56.23
2022-07-29T20:03:53.876Z,56.09
2022-07-29T20:06:23.221Z,55.35
2022-07-29T20:08:55.364Z,55.51
2022-07-29T20:11:26.766Z,55.87
2022-07-29T20:13:54.647Z,55.54
2022-07-29T20:16:22.800Z,56.01
2022-07-29T20:18:53.241Z,55.66
2022-07-29T20:21:21.084Z,56.12
2022-07-29T20:23:49.095Z,55.33
2022-07-29T20:26:17.475Z,55.53
2022-07-29T20:28:49.288Z,56.08
2022-07-29T20:31:18.808Z,55.82
2022-07-29T20:33:47.362Z,56.15
2022-07-29T20:36:15.410Z,55.06
2022-07-29T20:38:43.715Z,54.57
2022-07-29T20:41:11.690Z,54.46
2022-07-29T20:43:40.085Z,54.89
2022-07-29T20:46:08.031Z,55.00
2022-07-29T20:48:35.918Z,55.62
2022-07-29T20:51:03.926Z,54.94
2022-07-29T20:53:33.953Z,55.08
2022-07-29T20:56:01.853Z,54.79
2022-07-29T20:58:29.648Z,54.74
2022-07-29T21:00:57.627Z,55.05
2022-07-29T21:03:25.524Z,55.53
2022-07-29T21:05:55.072Z,55.30
2022-07-29T21:08:23.009Z,54.83
2022-07-29T21:10:50.851Z,55.02
2022-07-29T21:13:20.616Z,55.05
2022-07-29T21:15:50.309Z,55.17
2022-07-29T21:18:30.753Z,55.27
2022-07-29T21:21:01.354Z,55.40
2022-07-29T21:23:30.200Z,55.10
2022-07-29T21:25:58.316Z,55.12
2022-07-29T21:28:26.634Z,55.60
2022-07-29T21:30:55.892Z,55.40
2022-07-29T21:33:24.831Z,55.23
2022-07-29T21:36:20.322Z,55.48
2022-07-29T21:38:40.497Z,55.63
2022-07-29T21:41:08.524Z,55.73
2022-07-29T21:43:36.316Z,55.76
2022-07-29T21:46:04.922Z,55.72
2022-07-29T21:48:33.097Z,55.66
2022-07-29T21:51:00.959Z,55.58
2022-07-29T21:53:28.841Z,55.90
2022-07-29T21:55:58.632Z,56.19
2022-07-29T21:58:27.479Z,56.26
2022-07-29T22:00:55.280Z,56.28
2022-07-29T22:03:23.115Z,56.19
2022-07-29T22:05:50.924Z,56.15
2022-07-29T22:08:21.048Z,56.21
2022-07-29T22:10:48.800Z,56.31
2022-07-29T22:13:16.742Z,55.92
2022-07-29T22:15:47.162Z,56.27
2022-07-29T22:18:20.996Z,56.41
2022-07-29T22:20:50.026Z,56.97
2022-07-29T22:23:17.907Z,56.17
2022-07-29T22:25:45.894Z,56.30
2022-07-29T22:28:14.997Z,56.52
2022-07-29T22:30:42.900Z,56.66
2022-07-29T22:33:17.967Z,56.43
2022-07-29T22:35:48.437Z,56.10
2022-07-29T22:38:19.524Z,56.60
2022-07-29T22:40:50.663Z,56.29
2022-07-29T22:43:18.772Z,56.72
2022-07-29T22:45:46.878Z,56.50
2022-07-29T22:48:14.826Z,56.58
2022-07-29T22:50:42.612Z,56.21
2022-07-29T22:53:10.476Z,56.50
2022-07-29T22:55:38.565Z,56.38
2022-07-29T22:58:06.439Z,56.52
2022-07-29T23:00:34.500Z,56.81
2022-07-29T23:03:02.388Z,56.89
2022-07-29T23:05:30.547Z,56.90
2022-07-29T23:07:58.381Z,56.63
2022-07-29T23:10:26.745Z,56.41
2022-07-29T23:12:54.636Z,56.17
2022-07-29T23:15:23.085Z,56.35
2022-07-29T23:17:51.654Z,56.56
2022-07-29T23:20:19.535Z,55.96
2022-07-29T23:22:47.360Z,56.44
2022-07-29T23:25:15.097Z,56.36
2022-07-29T23:27:43.063Z,56.63
2022-07-29T23:30:11.842Z,56.21
2022-07-29T23:32:41.022Z,56.99
2022-07-29T23:35:09.557Z,57.31
2022-07-29T23:37:37.391Z,57.59
2022-07-29T23:40:08.670Z,57.55
2022-07-29T23:42:38.885Z,57.57
2022-07-29T23:45:07.465Z,57.70
2022-07-29T23:47:35.411Z,57.44
2022-07-29T23:50:04.324Z,57.93
2022-07-29T23:52:32.074Z,58.00
2022-07-29T23:55:38.181Z,57.83
2022-07-29T23:57:49.921Z,57.68
